Yamaguchi, Japan
Current Conditions -  °F | °C
As of 2:00 PM on Tuesday 21 Oct 2014 (Local Time) from RJDC Reporting Station
Broken Clouds Broken Clouds  
Wind Chill: 72°   Ceiling: 7000
Heat Index: 72°   Visibility: 6mi
Dew Point: 66°   Wind: 10mph
Humidity: 83%   Direction: 70°ENE
Pressure: 29.91"   Gusts: NA
Location:  34.18°N, 131.48°E
Report Text: RJDC 210500Z 07009KT 9999 FEW020 SCT040 BKN070 22/19 Q1013
Loading
Personal Weather Stations






























Interactive Weather Map
Tropical Storm Tracking
New forecast layout! Learn more

10-Day Weather Forecast

Advertisements
Track Severe Weather on mobile